createdAt,value
2022-10-17T00:01:26.153Z,24.50
2022-10-17T00:06:47.893Z,31.70
2022-10-17T00:12:09.950Z,36.90
2022-10-17T00:17:31.757Z,61.20
2022-10-17T00:22:53.613Z,63.40
2022-10-17T00:28:15.912Z,46.60
2022-10-17T00:33:37.349Z,51.40
2022-10-17T00:38:59.415Z,46.40
2022-10-17T00:44:29.728Z,26.40
2022-10-17T00:49:51.289Z,24.90
2022-10-17T00:55:31.058Z,46.60
2022-10-17T01:00:52.874Z,61.70
2022-10-17T01:06:14.441Z,52.20
2022-10-17T01:12:01.454Z,45.00
2022-10-17T01:17:51.886Z,39.10
2022-10-17T01:23:48.505Z,47.20
2022-10-17T01:29:47.869Z,40.70
2022-10-17T01:35:23.303Z,42.70
2022-10-17T01:40:48.479Z,43.30
2022-10-17T01:46:22.464Z,48.00
2022-10-17T01:51:48.619Z,34.90
2022-10-17T01:57:30.829Z,39.60
2022-10-17T02:02:57.260Z,34.40
2022-10-17T02:08:27.499Z,25.70
2022-10-17T02:14:01.679Z,20.70
2022-10-17T02:19:33.869Z,25.20
2022-10-17T02:25:17.483Z,22.00
2022-10-17T02:30:55.371Z,25.80
2022-10-17T02:36:21.770Z,18.60
2022-10-17T02:41:44.268Z,20.60
2022-10-17T02:47:17.946Z,26.00
2022-10-17T02:52:45.927Z,23.90
2022-10-17T02:58:10.867Z,22.60
2022-10-17T03:03:33.482Z,23.80
2022-10-17T03:08:56.730Z,27.30
2022-10-17T03:14:18.661Z,32.50
2022-10-17T03:19:41.008Z,27.00
2022-10-17T03:25:04.224Z,25.40
2022-10-17T03:30:26.303Z,26.70
2022-10-17T03:41:15.171Z,25.20
2022-10-17T03:46:37.461Z,22.20
2022-10-17T03:51:59.189Z,19.00
2022-10-17T03:57:21.887Z,24.20
2022-10-17T04:02:45.155Z,24.50
2022-10-17T04:08:11.437Z,19.10
2022-10-17T04:13:59.886Z,21.30
2022-10-17T04:19:21.952Z,23.00
2022-10-17T04:24:44.950Z,26.40
2022-10-17T04:30:18.919Z,23.00
2022-10-17T04:35:41.689Z,30.10
2022-10-17T04:41:08.073Z,26.10
2022-10-17T04:46:29.745Z,31.20
2022-10-17T04:51:51.157Z,31.50
2022-10-17T04:57:19.986Z,41.60
2022-10-17T05:02:49.201Z,32.80
2022-10-17T05:08:11.895Z,33.00
2022-10-17T05:13:33.760Z,29.40
2022-10-17T05:18:57.596Z,37.90
2022-10-17T05:24:21.891Z,40.70
2022-10-17T05:29:43.966Z,33.20
2022-10-17T05:35:12.237Z,35.40
2022-10-17T05:40:34.753Z,37.00
2022-10-17T05:45:57.886Z,39.80
2022-10-17T05:51:19.308Z,42.10
2022-10-17T05:56:41.501Z,43.00
2022-10-17T06:02:03.338Z,45.10
2022-10-17T06:07:25.717Z,33.90
2022-10-17T06:12:47.689Z,39.00
2022-10-17T06:18:11.076Z,38.10
2022-10-17T06:23:32.993Z,39.90
2022-10-17T06:29:02.045Z,36.30
2022-10-17T06:34:28.691Z,37.00
2022-10-17T06:39:50.275Z,32.50
2022-10-17T06:45:15.660Z,37.20
2022-10-17T06:50:48.638Z,33.10
2022-10-17T06:56:14.272Z,39.60
2022-10-17T07:01:51.048Z,38.00
2022-10-17T07:07:13.387Z,31.70
2022-10-17T07:12:35.516Z,40.00
2022-10-17T07:17:57.613Z,40.70
2022-10-17T07:23:21.352Z,37.40
2022-10-17T07:28:45.305Z,45.00
2022-10-17T07:34:21.918Z,32.30
2022-10-17T07:39:44.126Z,43.90
2022-10-17T07:45:06.506Z,30.10
2022-10-17T07:50:29.359Z,33.30
2022-10-17T07:55:51.570Z,30.70
2022-10-17T08:01:15.652Z,37.10
2022-10-17T08:06:37.612Z,32.60
2022-10-17T08:11:59.246Z,39.20
2022-10-17T08:17:22.781Z,43.40
2022-10-17T08:22:51.938Z,36.80
2022-10-17T08:28:13.435Z,20.50
2022-10-17T08:33:35.013Z,27.80
2022-10-17T08:38:56.593Z,20.90
2022-10-17T08:44:25.735Z,33.90
2022-10-17T08:49:51.518Z,20.90
2022-10-17T08:55:22.909Z,19.60
2022-10-17T09:01:12.790Z,17.80
2022-10-17T09:06:38.034Z,19.00
2022-10-17T09:12:13.642Z,21.70
2022-10-17T09:17:52.040Z,14.60
2022-10-17T09:23:17.491Z,15.30
2022-10-17T09:28:41.633Z,18.50
2022-10-17T09:34:03.490Z,15.60
2022-10-17T09:39:32.275Z,22.80
2022-10-17T09:45:12.887Z,16.40
2022-10-17T09:50:35.072Z,18.10
2022-10-17T09:55:59.760Z,16.30
2022-10-17T10:01:24.626Z,18.20
2022-10-17T10:07:12.496Z,16.50
2022-10-17T10:12:39.149Z,13.90
2022-10-17T10:18:01.298Z,19.40
2022-10-17T10:23:24.361Z,13.00
2022-10-17T10:29:15.405Z,13.20
2022-10-17T10:34:42.555Z,18.30
2022-10-17T10:40:18.695Z,13.90
2022-10-17T10:45:48.085Z,16.20
2022-10-17T10:51:17.223Z,17.20
2022-10-17T10:56:43.870Z,10.10
2022-10-17T11:02:24.205Z,15.60
2022-10-17T11:08:11.244Z,14.80
2022-10-17T11:13:39.782Z,16.60
2022-10-17T11:19:29.988Z,11.60
2022-10-17T11:25:05.676Z,17.90
2022-10-17T11:30:35.091Z,11.10
2022-10-17T11:36:02.171Z,17.30
2022-10-17T11:41:34.936Z,13.40
2022-10-17T11:47:02.009Z,16.00
2022-10-17T11:52:57.157Z,10.00
2022-10-17T11:58:33.244Z,17.40
2022-10-17T12:04:07.520Z,13.00
2022-10-17T12:09:52.410Z,9.50
2022-10-17T12:15:14.215Z,12.10
2022-10-17T12:20:36.696Z,9.90
2022-10-17T12:26:04.801Z,7.80
2022-10-17T12:31:33.413Z,9.60
2022-10-17T12:36:55.380Z,14.30
2022-10-17T12:42:31.177Z,9.70
2022-10-17T12:47:53.286Z,12.50
2022-10-17T12:53:18.531Z,12.70
2022-10-17T12:58:50.195Z,10.40
2022-10-17T13:04:12.550Z,11.40
2022-10-17T13:09:39.047Z,10.80
2022-10-17T13:15:04.108Z,13.70
2022-10-17T13:20:31.318Z,13.10
2022-10-17T13:26:22.651Z,12.40
2022-10-17T13:31:44.866Z,12.00
2022-10-17T13:37:11.165Z,14.70
2022-10-17T13:42:39.748Z,10.60
2022-10-17T13:48:04.291Z,9.70
2022-10-17T13:53:39.976Z,9.40
2022-10-17T13:59:08.301Z,9.30
2022-10-17T14:04:40.081Z,14.10
2022-10-17T14:10:20.645Z,11.80
2022-10-17T14:15:48.392Z,12.20
2022-10-17T14:26:53.709Z,9.70
2022-10-17T14:32:16.125Z,10.00
2022-10-17T14:37:45.820Z,10.80
2022-10-17T14:43:19.757Z,11.20
2022-10-17T14:48:42.092Z,11.60
2022-10-17T14:54:24.386Z,14.90
2022-10-17T14:59:55.194Z,15.50
2022-10-17T15:05:18.215Z,18.40
2022-10-17T15:10:44.629Z,29.10
2022-10-17T15:16:15.487Z,19.90
2022-10-17T15:21:42.082Z,34.80
2022-10-17T15:27:22.822Z,43.80
2022-10-17T15:32:44.545Z,37.50
2022-10-17T15:38:07.360Z,20.80
2022-10-17T15:43:29.300Z,16.20
2022-10-17T15:48:50.904Z,15.80
2022-10-17T15:59:39.152Z,12.20
2022-10-17T16:05:03.841Z,19.50
2022-10-17T16:10:26.162Z,17.50
2022-10-17T16:15:47.804Z,17.80
2022-10-17T16:21:12.988Z,21.50
2022-10-17T16:26:34.444Z,23.00
2022-10-17T16:31:56.145Z,27.20
2022-10-17T16:37:17.873Z,24.20
2022-10-17T16:42:41.894Z,26.30
2022-10-17T16:48:03.935Z,23.90
2022-10-17T16:53:25.428Z,28.60
2022-10-17T16:58:47.900Z,34.80
2022-10-17T17:04:09.678Z,23.10
2022-10-17T17:09:31.353Z,19.20
2022-10-17T17:14:53.085Z,24.80
2022-10-17T17:20:14.684Z,24.00
2022-10-17T17:25:39.251Z,20.90
2022-10-17T17:31:01.784Z,16.90
2022-10-17T17:36:31.881Z,20.70
2022-10-17T17:41:53.268Z,32.80
2022-10-17T17:47:15.057Z,27.60
2022-10-17T17:52:40.308Z,22.60
2022-10-17T17:58:03.111Z,27.00
2022-10-17T18:03:25.370Z,26.50
2022-10-17T18:08:49.138Z,31.90
2022-10-17T18:14:12.759Z,31.10
2022-10-17T18:19:34.703Z,25.80
2022-10-17T18:24:56.531Z,31.80
2022-10-17T18:30:21.164Z,22.50
2022-10-17T18:35:45.909Z,24.50
2022-10-17T18:41:11.194Z,35.00
2022-10-17T18:46:41.769Z,32.80
2022-10-17T18:52:03.550Z,39.50
2022-10-17T18:57:26.268Z,39.60
2022-10-17T19:02:48.301Z,39.70
2022-10-17T19:08:10.660Z,30.60
2022-10-17T19:13:32.993Z,32.10
2022-10-17T19:18:59.827Z,39.20
2022-10-17T19:24:25.979Z,43.40
2022-10-17T19:29:48.083Z,41.50
2022-10-17T19:35:11.390Z,38.70
2022-10-17T19:40:32.917Z,36.40
2022-10-17T19:46:00.217Z,38.20
2022-10-17T19:51:26.757Z,34.60
2022-10-17T19:56:48.670Z,35.50
2022-10-17T20:02:12.971Z,30.40
2022-10-17T20:07:34.735Z,24.10
2022-10-17T20:12:56.155Z,27.20
2022-10-17T20:18:17.790Z,30.50
2022-10-17T20:23:40.493Z,27.00
2022-10-17T20:29:02.897Z,29.90
2022-10-17T20:34:24.883Z,28.00
2022-10-17T20:39:46.514Z,21.80
2022-10-17T20:45:08.522Z,31.90
2022-10-17T20:50:33.883Z,39.70
2022-10-17T20:56:06.234Z,37.10
2022-10-17T21:01:29.648Z,40.80
2022-10-17T21:06:54.526Z,34.70
2022-10-17T21:12:25.938Z,36.50
2022-10-17T21:17:58.151Z,31.90
2022-10-17T21:23:20.283Z,30.80
2022-10-17T21:28:42.940Z,30.60
2022-10-17T21:34:10.335Z,31.70
2022-10-17T21:39:31.562Z,27.90
2022-10-17T21:44:53.316Z,27.10
2022-10-17T21:50:14.950Z,25.90
2022-10-17T21:55:37.881Z,20.60
2022-10-17T22:01:14.212Z,25.30
2022-10-17T22:06:40.118Z,21.20
2022-10-17T22:12:02.570Z,19.20
2022-10-17T22:17:24.060Z,21.70
2022-10-17T22:22:45.828Z,20.00
2022-10-17T22:28:07.887Z,17.20
2022-10-17T22:33:32.510Z,22.20
2022-10-17T22:38:54.209Z,22.60
2022-10-17T22:44:16.317Z,27.30
2022-10-17T22:49:37.946Z,24.30
2022-10-17T22:54:59.737Z,23.90
2022-10-17T23:00:21.364Z,21.40
2022-10-17T23:05:43.592Z,17.10
2022-10-17T23:11:06.110Z,25.20
2022-10-17T23:16:27.391Z,19.30
2022-10-17T23:21:49.019Z,19.00
2022-10-17T23:27:10.747Z,22.00
2022-10-17T23:32:32.829Z,24.80
2022-10-17T23:37:54.812Z,20.20
2022-10-17T23:43:16.939Z,22.90
2022-10-17T23:48:39.569Z,23.80
2022-10-17T23:54:01.297Z,28.00
2022-10-17T23:59:23.079Z,24.60
